Time;durP1;ratioP1;P1;durP2;ratioP2;P2;SDS_P1;SDS_P2;PMS_P1;PMS_P2;Temp;Humidity;BMP_temperature;BMP_pressure;BME280_temperature;BME280_humidity;BME280_pressure;Samples;Min_cycle;Max_cycle;Signal;HPM_P1;HPM_P2
2023/08/06 00:00:13;;;;;;;0.60;0.60;;;;;;;;;;5088520;28;20252;-65
2023/08/06 00:02:42;;;;;;;0.60;0.60;;;;;;;;;;5099022;28;20708;-65
2023/08/06 00:05:10;;;;;;;0.80;0.70;;;;;;;;;;5098821;28;20216;-65
2023/08/06 00:07:38;;;;;;;1.30;0.50;;;;;;;;;;5098882;28;20241;-65
2023/08/06 00:10:06;;;;;;;0.83;0.60;;;;;;;;;;5098802;28;20232;-65
2023/08/06 00:12:34;;;;;;;0.63;0.50;;;;;;;;;;5098641;28;20205;-65
2023/08/06 00:15:01;;;;;;;0.60;0.60;;;;;;;;;;5098354;28;20209;-65
2023/08/06 00:17:29;;;;;;;0.43;0.43;;;;;;;;;;5098712;28;20211;-65
2023/08/06 00:20:04;;;;;;;1.03;0.57;;;;;;;;;;5098533;28;20239;-65
2023/08/06 00:22:32;;;;;;;0.30;0.30;;;;;;;;;;5098349;28;20201;-65
2023/08/06 00:25:00;;;;;;;0.80;0.50;;;;;;;;;;5098686;28;20251;-65
2023/08/06 00:27:28;;;;;;;1.43;0.40;;;;;;;;;;5098571;28;20206;-65
2023/08/06 00:29:55;;;;;;;0.67;0.50;;;;;;;;;;5098221;28;20220;-65
2023/08/06 00:32:23;;;;;;;1.53;0.70;;;;;;;;;;5098448;28;20209;-65
2023/08/06 00:34:51;;;;;;;1.00;0.70;;;;;;;;;;5098479;28;20213;-65
2023/08/06 00:37:20;;;;;;;0.50;0.50;;;;;;;;;;5098300;28;20208;-65
2023/08/06 00:39:48;;;;;;;0.60;0.60;;;;;;;;;;5095911;28;20230;-65
2023/08/06 00:42:17;;;;;;;0.70;0.70;;;;;;;;;;5093628;28;20274;-65
2023/08/06 00:44:44;;;;;;;0.73;0.63;;;;;;;;;;5098162;28;20237;-65
2023/08/06 00:47:12;;;;;;;1.13;0.60;;;;;;;;;;5098226;28;20211;-65
2023/08/06 00:49:40;;;;;;;0.60;0.60;;;;;;;;;;5097905;28;20284;-65
2023/08/06 00:52:09;;;;;;;1.37;0.90;;;;;;;;;;5098137;28;20206;-65
2023/08/06 00:54:38;;;;;;;0.50;0.50;;;;;;;;;;5097951;28;20206;-65
2023/08/06 00:57:05;;;;;;;0.57;0.57;;;;;;;;;;5098120;28;20273;-65
2023/08/06 00:59:33;;;;;;;1.57;0.77;;;;;;;;;;5090127;28;20768;-65
2023/08/06 01:02:02;;;;;;;0.60;0.60;;;;;;;;;;5096283;28;20212;-65
2023/08/06 01:04:29;;;;;;;0.67;0.53;;;;;;;;;;5097993;28;20212;-65
2023/08/06 01:07:03;;;;;;;2.00;0.60;;;;;;;;;;5099329;28;20207;-65
2023/08/06 01:09:36;;;;;;;1.13;0.83;;;;;;;;;;5104732;28;20203;-65
2023/08/06 01:12:10;;;;;;;0.50;0.40;;;;;;;;;;5104789;28;20220;-65
2023/08/06 01:14:43;;;;;;;0.60;0.60;;;;;;;;;;5104131;28;20561;-65
2023/08/06 01:17:11;;;;;;;0.87;0.70;;;;;;;;;;5104756;28;20294;-65
2023/08/06 01:19:38;;;;;;;0.50;0.50;;;;;;;;;;5104459;28;20227;-65
2023/08/06 01:22:07;;;;;;;1.73;0.50;;;;;;;;;;5104554;28;20208;-64
2023/08/06 01:24:35;;;;;;;1.33;0.90;;;;;;;;;;5104288;28;20687;-65
2023/08/06 01:27:05;;;;;;;1.03;0.93;;;;;;;;;;5104727;28;20211;-64
2023/08/06 01:29:36;;;;;;;2.67;1.60;;;;;;;;;;5104239;28;20201;-65
2023/08/06 01:32:04;;;;;;;1.90;1.40;;;;;;;;;;5104432;28;20238;-65
2023/08/06 01:34:33;;;;;;;2.63;1.90;;;;;;;;;;5104490;28;20234;-65
2023/08/06 01:37:01;;;;;;;2.23;1.67;;;;;;;;;;5104214;28;20255;-64
2023/08/06 01:39:32;;;;;;;3.43;1.50;;;;;;;;;;5104050;28;20263;-65
2023/08/06 01:42:00;;;;;;;2.60;1.40;;;;;;;;;;5097322;28;20203;-65
2023/08/06 01:44:27;;;;;;;1.97;1.40;;;;;;;;;;5104246;28;20217;-64
2023/08/06 01:46:55;;;;;;;2.90;1.50;;;;;;;;;;5104081;28;20207;-64
2023/08/06 01:49:23;;;;;;;5.73;1.30;;;;;;;;;;5104475;28;20285;-64
2023/08/06 01:51:51;;;;;;;4.63;2.13;;;;;;;;;;5103835;28;20280;-64
2023/08/06 01:54:19;;;;;;;4.23;2.23;;;;;;;;;;5104238;28;20206;-64
2023/08/06 01:56:48;;;;;;;7.10;2.30;;;;;;;;;;5104256;28;20197;-64
2023/08/06 01:59:15;;;;;;;4.57;2.57;;;;;;;;;;5098503;28;20591;-65
2023/08/06 02:01:43;;;;;;;5.47;2.70;;;;;;;;;;5099588;28;20221;-64
2023/08/06 02:04:11;;;;;;;6.10;2.13;;;;;;;;;;5104073;28;20240;-63
2023/08/06 02:06:39;;;;;;;7.73;1.83;;;;;;;;;;5103948;28;20220;-64
2023/08/06 02:09:06;;;;;;;5.93;2.20;;;;;;;;;;5104268;28;20229;-65
2023/08/06 02:11:34;;;;;;;3.07;1.60;;;;;;;;;;5104080;28;20288;-65
2023/08/06 02:14:03;;;;;;;7.67;1.80;;;;;;;;;;5103960;28;20293;-65
2023/08/06 02:16:31;;;;;;;5.87;1.60;;;;;;;;;;5104094;28;20211;-65
2023/08/06 02:18:59;;;;;;;8.07;1.47;;;;;;;;;;5101626;28;20745;-64
2023/08/06 02:21:26;;;;;;;6.77;1.33;;;;;;;;;;5100626;28;20315;-65
2023/08/06 02:23:54;;;;;;;6.13;1.90;;;;;;;;;;5100866;28;20205;-64
2023/08/06 02:26:22;;;;;;;4.47;1.10;;;;;;;;;;5100847;28;20203;-65
2023/08/06 02:28:50;;;;;;;8.80;4.17;;;;;;;;;;5100682;28;20207;-64
2023/08/06 02:31:19;;;;;;;3.90;1.07;;;;;;;;;;5100649;28;20237;-65
2023/08/06 02:33:47;;;;;;;4.20;1.00;;;;;;;;;;5100722;28;20674;-64
2023/08/06 02:36:14;;;;;;;6.20;1.13;;;;;;;;;;5100091;28;20231;-64
2023/08/06 02:38:42;;;;;;;5.53;1.30;;;;;;;;;;5100304;28;20205;-64
2023/08/06 02:41:10;;;;;;;6.10;1.63;;;;;;;;;;5092804;28;20226;-65
2023/08/06 02:43:38;;;;;;;7.93;1.70;;;;;;;;;;5100143;28;20210;-65
2023/08/06 02:46:05;;;;;;;2.77;1.27;;;;;;;;;;5100509;28;20240;-65
2023/08/06 02:48:35;;;;;;;6.20;1.50;;;;;;;;;;5100238;28;20215;-65
2023/08/06 02:51:03;;;;;;;3.47;1.47;;;;;;;;;;5100240;28;20290;-65
2023/08/06 02:53:31;;;;;;;6.50;1.30;;;;;;;;;;5100219;28;20242;-65
2023/08/06 02:55:59;;;;;;;5.70;1.70;;;;;;;;;;5100341;28;20214;-65
2023/08/06 02:58:27;;;;;;;3.57;1.40;;;;;;;;;;5099992;28;20213;-65
2023/08/06 03:01:02;;;;;;;9.43;1.60;;;;;;;;;;5090130;28;20231;-65
2023/08/06 03:03:30;;;;;;;4.43;1.27;;;;;;;;;;5099837;28;20211;-65
2023/08/06 03:05:59;;;;;;;7.97;1.50;;;;;;;;;;5100015;28;20209;-64
2023/08/06 03:08:27;;;;;;;4.00;1.27;;;;;;;;;;5099962;28;20209;-64
2023/08/06 03:10:55;;;;;;;6.20;1.67;;;;;;;;;;5099563;28;20276;-64
2023/08/06 03:13:23;;;;;;;7.27;1.80;;;;;;;;;;5099178;28;20220;-63
2023/08/06 03:15:54;;;;;;;3.47;1.30;;;;;;;;;;5099874;28;20216;-64
2023/08/06 03:18:22;;;;;;;4.97;1.70;;;;;;;;;;5099777;28;20296;-63
2023/08/06 03:20:50;;;;;;;5.47;1.50;;;;;;;;;;5099667;28;20229;-65
2023/08/06 03:23:19;;;;;;;3.70;1.33;;;;;;;;;;5099595;28;20223;-64
2023/08/06 03:25:47;;;;;;;5.10;1.53;;;;;;;;;;5099436;28;20622;-65
2023/08/06 03:28:15;;;;;;;9.13;1.53;;;;;;;;;;5099294;28;20213;-65
2023/08/06 03:30:42;;;;;;;6.30;1.43;;;;;;;;;;5097924;28;20261;-65
2023/08/06 03:33:10;;;;;;;7.17;1.80;;;;;;;;;;5099564;28;20241;-65
2023/08/06 03:35:38;;;;;;;6.37;1.30;;;;;;;;;;5099381;28;20635;-65
2023/08/06 03:38:06;;;;;;;5.13;1.50;;;;;;;;;;5099137;28;20210;-65
2023/08/06 03:40:37;;;;;;;4.73;1.50;;;;;;;;;;5091857;28;20252;-65
2023/08/06 03:43:04;;;;;;;5.30;1.53;;;;;;;;;;5099316;28;20218;-65
2023/08/06 03:45:32;;;;;;;8.10;1.60;;;;;;;;;;5099460;28;20289;-65
2023/08/06 03:48:00;;;;;;;4.73;1.40;;;;;;;;;;5099340;28;20241;-65
2023/08/06 03:50:28;;;;;;;8.33;2.07;;;;;;;;;;5098929;28;20251;-65
2023/08/06 03:52:55;;;;;;;7.47;1.80;;;;;;;;;;5099084;28;20206;-64
2023/08/06 03:55:23;;;;;;;7.10;1.40;;;;;;;;;;5098885;28;20205;-65
2023/08/06 03:57:52;;;;;;;6.17;1.80;;;;;;;;;;5098851;28;20202;-64
2023/08/06 04:00:20;;;;;;;7.23;1.20;;;;;;;;;;5089019;28;20256;-64
2023/08/06 04:02:49;;;;;;;7.00;1.37;;;;;;;;;;5099022;28;20213;-65
2023/08/06 04:05:17;;;;;;;5.13;1.40;;;;;;;;;;5098835;28;20212;-65
2023/08/06 04:07:44;;;;;;;3.90;1.50;;;;;;;;;;5098921;28;20202;-64
2023/08/06 04:10:12;;;;;;;5.83;1.50;;;;;;;;;;5098767;28;20230;-64
2023/08/06 04:12:40;;;;;;;4.73;1.57;;;;;;;;;;5098922;28;20206;-64
2023/08/06 04:15:09;;;;;;;4.73;1.53;;;;;;;;;;5098646;28;20222;-64
2023/08/06 04:17:37;;;;;;;4.50;1.47;;;;;;;;;;5098827;28;20290;-64
2023/08/06 04:20:05;;;;;;;4.83;1.60;;;;;;;;;;5098664;28;20240;-65
2023/08/06 04:22:33;;;;;;;9.27;2.00;;;;;;;;;;5098449;28;20264;-65
2023/08/06 04:25:01;;;;;;;4.23;1.07;;;;;;;;;;5098630;28;20240;-63
2023/08/06 04:27:29;;;;;;;4.93;1.20;;;;;;;;;;5098267;28;20213;-63
2023/08/06 04:29:57;;;;;;;6.53;1.17;;;;;;;;;;5098249;28;20239;-63
2023/08/06 04:32:26;;;;;;;5.20;1.00;;;;;;;;;;5098445;28;20284;-64
2023/08/06 04:34:56;;;;;;;4.47;1.30;;;;;;;;;;5098215;28;20205;-64
2023/08/06 04:37:24;;;;;;;3.17;1.00;;;;;;;;;;5098332;28;20209;-64
2023/08/06 04:39:52;;;;;;;2.67;0.60;;;;;;;;;;5095277;28;20229;-64
2023/08/06 04:42:19;;;;;;;5.03;1.07;;;;;;;;;;5093471;28;20233;-64
2023/08/06 04:44:47;;;;;;;2.47;0.77;;;;;;;;;;5098056;28;20205;-64
2023/08/06 04:47:15;;;;;;;4.97;0.90;;;;;;;;;;5098143;28;20209;-65
2023/08/06 04:49:46;;;;;;;4.80;1.00;;;;;;;;;;5098086;28;20562;-65
2023/08/06 04:52:14;;;;;;;3.73;1.03;;;;;;;;;;5098330;28;20561;-65
2023/08/06 04:54:41;;;;;;;2.50;0.77;;;;;;;;;;5098430;28;20201;-65
2023/08/06 04:57:09;;;;;;;2.90;0.97;;;;;;;;;;5098277;28;20209;-64
2023/08/06 04:59:37;;;;;;;4.53;1.27;;;;;;;;;;5089508;28;20305;-64
2023/08/06 05:02:05;;;;;;;2.30;1.00;;;;;;;;;;5096074;28;20229;-64
2023/08/06 05:04:32;;;;;;;2.83;0.97;;;;;;;;;;5098098;28;20236;-64
2023/08/06 05:07:01;;;;;;;5.47;1.03;;;;;;;;;;5097651;28;20205;-64
2023/08/06 05:09:29;;;;;;;1.60;0.70;;;;;;;;;;5097777;28;20209;-65
2023/08/06 05:11:57;;;;;;;4.03;0.90;;;;;;;;;;5097977;28;20215;-64
2023/08/06 05:14:25;;;;;;;2.67;0.80;;;;;;;;;;5097797;28;20255;-65
2023/08/06 05:16:52;;;;;;;2.30;0.67;;;;;;;;;;5098290;28;20245;-64
2023/08/06 05:19:20;;;;;;;3.63;0.90;;;;;;;;;;5097804;28;20209;-64
2023/08/06 05:21:48;;;;;;;3.17;1.00;;;;;;;;;;5097572;28;20565;-63
2023/08/06 05:24:17;;;;;;;2.47;0.60;;;;;;;;;;5097906;28;20209;-64
2023/08/06 05:26:49;;;;;;;3.17;1.10;;;;;;;;;;5097944;28;20215;-65
2023/08/06 05:29:17;;;;;;;6.60;0.87;;;;;;;;;;5097755;28;20205;-65
2023/08/06 05:31:45;;;;;;;4.93;0.90;;;;;;;;;;5097878;28;20317;-63
2023/08/06 05:34:13;;;;;;;2.13;0.90;;;;;;;;;;5097767;28;20210;-65
2023/08/06 05:36:40;;;;;;;2.23;1.00;;;;;;;;;;5097607;28;20205;-65
2023/08/06 05:39:08;;;;;;;4.47;0.73;;;;;;;;;;5097759;28;20649;-65
2023/08/06 05:41:37;;;;;;;2.50;0.70;;;;;;;;;;5089524;28;20234;-65
2023/08/06 05:44:05;;;;;;;4.40;0.90;;;;;;;;;;5097171;28;20201;-65
2023/08/06 05:46:33;;;;;;;5.47;1.20;;;;;;;;;;5097736;28;20209;-65
2023/08/06 05:49:00;;;;;;;4.37;1.20;;;;;;;;;;5097810;28;20725;-65
2023/08/06 05:51:28;;;;;;;6.87;0.80;;;;;;;;;;5097227;28;20301;-63
2023/08/06 05:53:56;;;;;;;1.23;0.73;;;;;;;;;;5098443;28;20251;-64
2023/08/06 05:56:24;;;;;;;2.90;0.67;;;;;;;;;;5101708;28;20648;-64
2023/08/06 05:58:53;;;;;;;5.10;0.90;;;;;;;;;;5099094;28;20304;-64
2023/08/06 06:01:21;;;;;;;2.37;0.70;;;;;;;;;;5093850;28;20225;-65
2023/08/06 06:03:49;;;;;;;2.40;0.73;;;;;;;;;;5101080;28;20569;-65
2023/08/06 06:06:18;;;;;;;2.60;1.07;;;;;;;;;;5101067;28;20644;-64
2023/08/06 06:08:46;;;;;;;3.13;0.70;;;;;;;;;;5101035;28;20360;-64
2023/08/06 06:11:13;;;;;;;1.87;1.00;;;;;;;;;;5100855;28;20311;-65
2023/08/06 06:13:42;;;;;;;4.03;0.90;;;;;;;;;;5100660;28;20210;-65
2023/08/06 06:16:11;;;;;;;1.67;0.70;;;;;;;;;;5100885;28;20572;-64
2023/08/06 06:18:39;;;;;;;3.63;0.90;;;;;;;;;;5101083;28;20235;-63
2023/08/06 06:21:07;;;;;;;6.30;1.27;;;;;;;;;;5100885;28;20225;-65
2023/08/06 06:23:34;;;;;;;2.40;0.83;;;;;;;;;;5100842;28;20233;-63
2023/08/06 06:26:02;;;;;;;4.00;0.80;;;;;;;;;;5100886;28;20209;-64
2023/08/06 06:28:30;;;;;;;2.00;0.73;;;;;;;;;;5100364;28;20233;-64
2023/08/06 06:31:01;;;;;;;2.60;0.80;;;;;;;;;;5100662;28;20229;-65
2023/08/06 06:33:30;;;;;;;3.17;0.93;;;;;;;;;;5100531;28;20213;-65
2023/08/06 06:35:58;;;;;;;1.33;0.60;;;;;;;;;;5100654;28;20209;-64
2023/08/06 06:38:25;;;;;;;2.43;0.77;;;;;;;;;;5100690;28;20738;-64
2023/08/06 06:40:56;;;;;;;1.97;0.63;;;;;;;;;;5094410;28;20252;-64
2023/08/06 06:43:24;;;;;;;1.23;0.57;;;;;;;;;;5100218;28;20247;-64
2023/08/06 06:45:57;;;;;;;0.83;0.60;;;;;;;;;;5100391;28;20206;-64
2023/08/06 06:48:25;;;;;;;1.50;0.70;;;;;;;;;;5100166;28;20617;-64
2023/08/06 06:50:54;;;;;;;0.57;0.43;;;;;;;;;;5086942;28;20603;-64
2023/08/06 06:53:26;;;;;;;0.43;0.43;;;;;;;;;;5100290;28;20202;-64
2023/08/06 06:55:54;;;;;;;1.27;0.70;;;;;;;;;;5100359;28;20708;-65
2023/08/06 06:58:22;;;;;;;1.90;0.77;;;;;;;;;;5099819;28;20545;-65
2023/08/06 07:00:50;;;;;;;1.73;0.80;;;;;;;;;;5089843;28;20239;-65
2023/08/06 07:03:18;;;;;;;2.57;0.77;;;;;;;;;;5100040;28;20232;-65
2023/08/06 07:05:45;;;;;;;1.73;0.43;;;;;;;;;;5099735;28;20660;-65
2023/08/06 07:08:14;;;;;;;5.60;1.10;;;;;;;;;;5099976;28;20218;-65
2023/08/06 07:10:43;;;;;;;2.83;0.70;;;;;;;;;;5099763;28;20225;-64
2023/08/06 07:13:11;;;;;;;3.27;0.90;;;;;;;;;;5099738;28;20212;-65
2023/08/06 07:15:39;;;;;;;2.63;0.97;;;;;;;;;;5099697;28;20205;-63
2023/08/06 07:18:06;;;;;;;3.20;0.80;;;;;;;;;;5100086;28;20225;-65
2023/08/06 07:20:34;;;;;;;1.40;0.83;;;;;;;;;;5099824;28;20296;-64
2023/08/06 07:23:02;;;;;;;1.97;1.23;;;;;;;;;;5099719;28;20247;-64
2023/08/06 07:25:31;;;;;;;2.47;0.60;;;;;;;;;;5100119;28;20208;-65
2023/08/06 07:28:00;;;;;;;1.93;0.70;;;;;;;;;;5099243;28;20297;-64
2023/08/06 07:30:28;;;;;;;0.60;0.60;;;;;;;;;;5099535;28;20232;-65
2023/08/06 07:32:56;;;;;;;1.87;0.63;;;;;;;;;;5099398;28;20265;-64
2023/08/06 07:35:24;;;;;;;1.13;0.43;;;;;;;;;;5099676;28;20269;-65
2023/08/06 07:37:51;;;;;;;1.47;0.70;;;;;;;;;;5099110;28;20699;-64
2023/08/06 07:40:19;;;;;;;2.47;0.80;;;;;;;;;;5092487;28;20226;-64
2023/08/06 07:42:48;;;;;;;2.60;0.70;;;;;;;;;;5098716;28;20229;-64
2023/08/06 07:45:16;;;;;;;3.00;0.60;;;;;;;;;;5099180;28;20206;-64
2023/08/06 07:47:45;;;;;;;1.30;0.90;;;;;;;;;;5099257;28;20599;-65
2023/08/06 07:50:13;;;;;;;2.73;0.60;;;;;;;;;;5098897;28;20330;-64
2023/08/06 07:52:40;;;;;;;3.60;0.70;;;;;;;;;;5099114;28;20197;-64
2023/08/06 07:55:09;;;;;;;1.33;0.83;;;;;;;;;;5099096;28;20578;-65
2023/08/06 07:57:37;;;;;;;2.63;0.90;;;;;;;;;;5099206;28;20241;-64
2023/08/06 08:00:07;;;;;;;0.87;0.70;;;;;;;;;;5088626;28;20241;-65
2023/08/06 08:02:37;;;;;;;2.43;1.20;;;;;;;;;;5098670;28;20229;-64
2023/08/06 08:05:07;;;;;;;1.43;0.70;;;;;;;;;;5099013;28;20213;-63
2023/08/06 08:07:34;;;;;;;1.93;0.73;;;;;;;;;;5098503;28;20631;-63
2023/08/06 08:10:03;;;;;;;1.93;0.70;;;;;;;;;;5098417;28;20234;-63
2023/08/06 08:12:31;;;;;;;1.87;0.60;;;;;;;;;;5098593;28;20216;-64
2023/08/06 08:14:58;;;;;;;1.47;0.50;;;;;;;;;;5098445;28;20205;-63
2023/08/06 08:17:27;;;;;;;1.23;0.90;;;;;;;;;;5097993;28;20209;-64
2023/08/06 08:19:55;;;;;;;2.43;0.90;;;;;;;;;;5098503;28;20275;-63
2023/08/06 08:22:23;;;;;;;3.43;1.00;;;;;;;;;;5098283;28;20216;-63
2023/08/06 08:24:51;;;;;;;2.87;0.80;;;;;;;;;;5098478;28;20311;-65
2023/08/06 08:27:18;;;;;;;2.07;0.80;;;;;;;;;;5098287;28;20223;-63
2023/08/06 08:29:46;;;;;;;2.67;0.90;;;;;;;;;;5097857;28;20543;-63
2023/08/06 08:32:14;;;;;;;2.90;1.00;;;;;;;;;;5098247;28;20596;-65
2023/08/06 08:34:44;;;;;;;2.20;0.90;;;;;;;;;;5098381;28;20205;-64
2023/08/06 08:37:11;;;;;;;2.73;1.27;;;;;;;;;;5098600;28;20211;-63
2023/08/06 08:39:39;;;;;;;2.27;0.87;;;;;;;;;;5097088;28;20215;-64
2023/08/06 08:42:07;;;;;;;3.53;0.90;;;;;;;;;;5092178;28;20202;-63
2023/08/06 08:44:39;;;;;;;2.77;0.90;;;;;;;;;;5097956;28;20257;-63
2023/08/06 08:47:08;;;;;;;3.77;1.00;;;;;;;;;;5098265;28;20209;-65
2023/08/06 08:49:37;;;;;;;1.07;0.87;;;;;;;;;;5098149;28;20284;-65
2023/08/06 08:52:07;;;;;;;3.37;1.20;;;;;;;;;;5097830;28;20213;-64
2023/08/06 08:54:36;;;;;;;3.03;1.07;;;;;;;;;;5097973;28;20212;-64
2023/08/06 08:57:04;;;;;;;1.80;1.00;;;;;;;;;;5098172;28;20268;-64
2023/08/06 08:59:34;;;;;;;5.63;1.00;;;;;;;;;;5090317;28;20301;-64
2023/08/06 09:02:02;;;;;;;2.03;0.80;;;;;;;;;;5096849;28;20203;-64
2023/08/06 09:04:31;;;;;;;3.00;0.90;;;;;;;;;;5098052;28;20232;-64
2023/08/06 09:07:01;;;;;;;2.17;0.90;;;;;;;;;;5097765;28;20211;-64
2023/08/06 09:09:32;;;;;;;2.80;0.90;;;;;;;;;;5098034;28;20201;-64
2023/08/06 09:12:01;;;;;;;3.70;0.90;;;;;;;;;;5084420;28;20201;-64
2023/08/06 09:14:29;;;;;;;2.20;0.80;;;;;;;;;;5097650;28;20637;-64
2023/08/06 09:16:57;;;;;;;2.33;0.80;;;;;;;;;;5098035;28;20233;-64
2023/08/06 09:19:25;;;;;;;2.07;1.10;;;;;;;;;;5097936;28;20292;-64
2023/08/06 09:21:52;;;;;;;3.67;1.33;;;;;;;;;;5097728;28;20692;-64
2023/08/06 09:24:21;;;;;;;4.57;0.83;;;;;;;;;;5097130;28;20594;-63
2023/08/06 09:26:51;;;;;;;2.80;0.97;;;;;;;;;;5097945;28;20205;-65
2023/08/06 09:29:19;;;;;;;1.67;0.70;;;;;;;;;;5100597;28;20295;-64
2023/08/06 09:31:47;;;;;;;2.77;0.77;;;;;;;;;;5101628;28;20566;-64
2023/08/06 09:34:17;;;;;;;4.10;0.80;;;;;;;;;;5101669;28;20664;-64
2023/08/06 09:36:46;;;;;;;2.17;0.80;;;;;;;;;;5102005;28;20212;-63
2023/08/06 09:39:15;;;;;;;1.27;0.73;;;;;;;;;;5101864;28;20639;-63
2023/08/06 09:41:43;;;;;;;4.70;1.13;;;;;;;;;;5093875;28;20225;-65
2023/08/06 09:44:18;;;;;;;2.20;0.80;;;;;;;;;;5101397;28;20237;-65
2023/08/06 09:46:50;;;;;;;1.70;0.77;;;;;;;;;;5101701;28;20212;-65
2023/08/06 09:49:19;;;;;;;2.90;0.90;;;;;;;;;;5102124;28;20198;-64
2023/08/06 09:51:53;;;;;;;2.03;0.83;;;;;;;;;;5101327;28;20233;-63
2023/08/06 09:54:21;;;;;;;1.23;0.87;;;;;;;;;;5101650;28;20197;-63
2023/08/06 09:56:54;;;;;;;1.80;0.80;;;;;;;;;;5101197;28;20213;-63
2023/08/06 09:59:24;;;;;;;4.57;0.67;;;;;;;;;;5095103;28;20276;-63
2023/08/06 10:01:54;;;;;;;2.80;1.03;;;;;;;;;;5098639;28;20229;-63
2023/08/06 10:04:23;;;;;;;1.10;0.80;;;;;;;;;;5101334;28;20236;-65
2023/08/06 10:06:54;;;;;;;1.20;0.80;;;;;;;;;;5101213;28;20205;-64
2023/08/06 10:09:22;;;;;;;3.70;1.50;;;;;;;;;;5101301;28;20205;-65
2023/08/06 10:11:52;;;;;;;2.17;1.17;;;;;;;;;;5101104;28;20231;-63
2023/08/06 10:14:24;;;;;;;1.33;0.83;;;;;;;;;;5100894;28;20202;-63
2023/08/06 10:16:53;;;;;;;2.07;1.10;;;;;;;;;;5101224;28;20209;-65
2023/08/06 10:19:21;;;;;;;1.53;1.00;;;;;;;;;;5100873;28;20205;-64
2023/08/06 10:22:07;;;;;;;2.83;0.80;;;;;;;;;;5100839;28;20226;-64
2023/08/06 10:24:46;;;;;;;1.00;0.90;;;;;;;;;;5101045;28;20320;-64
2023/08/06 10:27:13;;;;;;;2.07;1.00;;;;;;;;;;5100752;28;20259;-64
2023/08/06 10:29:41;;;;;;;3.10;1.17;;;;;;;;;;5100393;28;20241;-66
2023/08/06 10:32:10;;;;;;;4.13;1.47;;;;;;;;;;5100768;28;20224;-65
2023/08/06 10:34:58;;;;;;;1.13;0.80;;;;;;;;;;5100555;28;20201;-63
2023/08/06 10:37:35;;;;;;;5.37;1.43;;;;;;;;;;5100525;28;20214;-64
2023/08/06 10:40:03;;;;;;;1.10;0.80;;;;;;;;;;5095434;28;20309;-63
2023/08/06 10:42:31;;;;;;;4.30;1.20;;;;;;;;;;5097663;28;20205;-64
2023/08/06 10:45:15;;;;;;;4.37;0.87;;;;;;;;;;5100187;28;20221;-64
2023/08/06 10:47:45;;;;;;;3.53;1.27;;;;;;;;;;5100278;28;20566;-64
2023/08/06 10:50:13;;;;;;;1.10;0.83;;;;;;;;;;5100373;28;20226;-64
2023/08/06 10:52:41;;;;;;;1.10;1.00;;;;;;;;;;5100262;28;20209;-64
2023/08/06 10:55:09;;;;;;;3.60;1.00;;;;;;;;;;5100277;28;20202;-64
2023/08/06 10:57:37;;;;;;;2.23;1.10;;;;;;;;;;5100163;28;20245;-64
2023/08/06 11:00:05;;;;;;;4.57;1.33;;;;;;;;;;5089634;28;20246;-64
2023/08/06 11:02:45;;;;;;;3.50;1.00;;;;;;;;;;5100354;28;20246;-64
2023/08/06 11:05:13;;;;;;;2.13;1.20;;;;;;;;;;5099952;28;20252;-64
2023/08/06 11:07:41;;;;;;;3.73;1.07;;;;;;;;;;5099813;28;20206;-63
2023/08/06 11:10:09;;;;;;;4.57;1.10;;;;;;;;;;5099717;28;20230;-64
2023/08/06 11:12:37;;;;;;;1.67;0.90;;;;;;;;;;5100435;28;20211;-64
2023/08/06 11:15:05;;;;;;;0.90;0.77;;;;;;;;;;5099422;28;20207;-64
2023/08/06 11:17:34;;;;;;;4.20;0.80;;;;;;;;;;5099994;28;20244;-64
2023/08/06 11:20:03;;;;;;;2.50;0.80;;;;;;;;;;5099581;28;20225;-65
2023/08/06 11:22:33;;;;;;;1.63;0.97;;;;;;;;;;5099512;28;20676;-64
2023/08/06 11:25:01;;;;;;;2.83;1.00;;;;;;;;;;5099685;28;20226;-64
2023/08/06 11:27:29;;;;;;;1.13;0.90;;;;;;;;;;5099715;28;20226;-65
2023/08/06 11:29:57;;;;;;;4.27;1.30;;;;;;;;;;5099382;28;20280;-63
2023/08/06 11:32:25;;;;;;;1.57;0.90;;;;;;;;;;5099574;28;20209;-65
2023/08/06 11:34:54;;;;;;;1.90;1.10;;;;;;;;;;5099655;28;20213;-64
2023/08/06 11:37:25;;;;;;;3.67;0.83;;;;;;;;;;5099370;28;20206;-63
2023/08/06 11:39:53;;;;;;;2.63;0.80;;;;;;;;;;5096403;28;20268;-63
2023/08/06 11:42:20;;;;;;;1.77;0.90;;;;;;;;;;5095339;28;20239;-64
2023/08/06 11:44:48;;;;;;;4.70;1.03;;;;;;;;;;5098987;28;20283;-64
2023/08/06 11:47:17;;;;;;;2.37;1.00;;;;;;;;;;5099034;28;20206;-65
2023/08/06 11:49:46;;;;;;;2.10;1.00;;;;;;;;;;5098971;28;20281;-64
2023/08/06 11:52:19;;;;;;;2.03;0.93;;;;;;;;;;5098028;28;20209;-65
2023/08/06 11:54:49;;;;;;;2.73;1.03;;;;;;;;;;5099309;28;20209;-64
2023/08/06 11:57:17;;;;;;;1.60;1.00;;;;;;;;;;5099057;28;20212;-65
2023/08/06 11:59:46;;;;;;;3.83;1.13;;;;;;;;;;5089378;28;20266;-65
2023/08/06 12:02:13;;;;;;;2.27;1.00;;;;;;;;;;5098705;28;20239;-65
2023/08/06 12:04:59;;;;;;;1.73;1.57;;;;;;;;;;5099198;28;20299;-65
2023/08/06 12:07:27;;;;;;;2.43;1.30;;;;;;;;;;5098623;28;20210;-65
2023/08/06 12:09:57;;;;;;;1.83;1.00;;;;;;;;;;5098870;28;20238;-65
2023/08/06 12:12:24;;;;;;;1.87;0.90;;;;;;;;;;5098928;28;20205;-65
2023/08/06 12:14:52;;;;;;;3.67;1.23;;;;;;;;;;5098637;28;20213;-65
2023/08/06 12:17:20;;;;;;;3.57;1.30;;;;;;;;;;5098690;28;20207;-65
2023/08/06 12:19:48;;;;;;;3.47;0.97;;;;;;;;;;5098310;28;20252;-65
2023/08/06 12:22:16;;;;;;;1.77;0.87;;;;;;;;;;5098799;28;20572;-65
2023/08/06 12:24:44;;;;;;;1.40;0.80;;;;;;;;;;5098335;28;20299;-65
2023/08/06 12:27:13;;;;;;;1.03;0.80;;;;;;;;;;5098391;28;20289;-65
2023/08/06 12:29:41;;;;;;;1.20;0.77;;;;;;;;;;5098177;28;20207;-65
2023/08/06 12:32:09;;;;;;;3.30;0.90;;;;;;;;;;5098206;28;20239;-65
2023/08/06 12:34:38;;;;;;;2.53;0.80;;;;;;;;;;5098211;28;20212;-65
2023/08/06 12:37:19;;;;;;;1.03;0.90;;;;;;;;;;5098304;28;20210;-65
2023/08/06 12:39:47;;;;;;;2.47;0.87;;;;;;;;;;5096066;28;20212;-65
2023/08/06 12:42:16;;;;;;;1.70;1.20;;;;;;;;;;5093160;28;20218;-65
2023/08/06 12:44:44;;;;;;;1.80;0.93;;;;;;;;;;5098218;28;20209;-65
2023/08/06 12:47:12;;;;;;;0.73;0.53;;;;;;;;;;5098158;28;20230;-65
2023/08/06 12:49:40;;;;;;;1.10;0.90;;;;;;;;;;5098231;28;20197;-65
2023/08/06 12:52:09;;;;;;;1.33;0.90;;;;;;;;;;5098073;28;20204;-65
2023/08/06 12:54:37;;;;;;;5.47;1.00;;;;;;;;;;5098221;28;20208;-65
2023/08/06 12:57:05;;;;;;;2.20;1.27;;;;;;;;;;5098038;28;20209;-66
2023/08/06 12:59:36;;;;;;;2.77;0.90;;;;;;;;;;5090192;28;20325;-65
2023/08/06 13:02:04;;;;;;;1.83;0.93;;;;;;;;;;5096977;28;20209;-65
2023/08/06 13:04:33;;;;;;;2.40;0.90;;;;;;;;;;5097818;28;20684;-65
2023/08/06 13:07:01;;;;;;;2.10;0.80;;;;;;;;;;5097578;28;20232;-65
2023/08/06 13:09:30;;;;;;;2.07;1.03;;;;;;;;;;5097756;28;20202;-65
2023/08/06 13:12:00;;;;;;;2.83;1.10;;;;;;;;;;5097743;28;20325;-65
2023/08/06 13:14:29;;;;;;;2.23;1.10;;;;;;;;;;5097650;28;20664;-65
2023/08/06 13:16:58;;;;;;;2.33;0.70;;;;;;;;;;5097789;28;20204;-65
2023/08/06 13:19:26;;;;;;;1.53;1.10;;;;;;;;;;5097581;28;20208;-65
2023/08/06 13:22:02;;;;;;;1.10;0.83;;;;;;;;;;5097848;28;20682;-65
2023/08/06 13:24:30;;;;;;;2.93;1.07;;;;;;;;;;5097870;28;20664;-65
2023/08/06 13:26:58;;;;;;;3.07;1.20;;;;;;;;;;5097953;28;20589;-65
2023/08/06 13:29:26;;;;;;;2.93;0.80;;;;;;;;;;5097338;28;20210;-65
2023/08/06 13:31:54;;;;;;;2.47;1.07;;;;;;;;;;5097822;28;20212;-65
2023/08/06 13:34:23;;;;;;;2.53;1.00;;;;;;;;;;5097730;28;20217;-65
2023/08/06 13:36:51;;;;;;;0.83;0.80;;;;;;;;;;5097686;28;20231;-65
2023/08/06 13:39:19;;;;;;;2.50;0.90;;;;;;;;;;5097790;28;20208;-65
2023/08/06 13:41:47;;;;;;;2.73;1.10;;;;;;;;;;5090647;28;20228;-65
2023/08/06 13:44:15;;;;;;;1.40;0.70;;;;;;;;;;5097484;28;20208;-66
2023/08/06 13:46:43;;;;;;;1.17;0.80;;;;;;;;;;5097425;28;20225;-65
2023/08/06 13:49:11;;;;;;;2.53;0.83;;;;;;;;;;5097426;28;20209;-65
2023/08/06 13:51:40;;;;;;;2.03;0.83;;;;;;;;;;5097215;28;20345;-65
2023/08/06 13:54:08;;;;;;;1.53;1.07;;;;;;;;;;5097500;28;20711;-65
2023/08/06 13:56:37;;;;;;;1.00;0.90;;;;;;;;;;5097512;28;20202;-65
2023/08/06 13:59:06;;;;;;;2.60;1.20;;;;;;;;;;5093515;28;20254;-65
2023/08/06 14:01:34;;;;;;;0.60;0.60;;;;;;;;;;5091648;28;20252;-65
2023/08/06 14:04:17;;;;;;;1.73;1.07;;;;;;;;;;5097818;28;20289;-65
2023/08/06 14:06:46;;;;;;;1.43;0.60;;;;;;;;;;5097286;28;20228;-65
2023/08/06 14:09:18;;;;;;;1.50;0.80;;;;;;;;;;5097397;28;20296;-65
2023/08/06 14:11:46;;;;;;;1.87;0.80;;;;;;;;;;5097460;28;20266;-65
2023/08/06 14:14:13;;;;;;;3.23;1.30;;;;;;;;;;5097160;28;20219;-65
2023/08/06 14:16:41;;;;;;;1.57;1.00;;;;;;;;;;5100722;28;20267;-65
2023/08/06 14:19:09;;;;;;;3.00;0.83;;;;;;;;;;5101079;28;20240;-65
2023/08/06 14:21:37;;;;;;;2.13;0.77;;;;;;;;;;5100802;28;20228;-65
2023/08/06 14:24:06;;;;;;;1.53;1.00;;;;;;;;;;5101054;28;20214;-65
2023/08/06 14:26:34;;;;;;;1.80;0.97;;;;;;;;;;5100517;28;20231;-65
2023/08/06 14:29:02;;;;;;;2.70;0.90;;;;;;;;;;5100599;28;20207;-64
2023/08/06 14:31:30;;;;;;;2.80;0.90;;;;;;;;;;5100366;28;20315;-64
2023/08/06 14:33:58;;;;;;;1.10;0.70;;;;;;;;;;5100763;28;20261;-65
2023/08/06 14:36:26;;;;;;;3.53;0.87;;;;;;;;;;5100459;28;20212;-65
2023/08/06 14:38:54;;;;;;;1.17;1.07;;;;;;;;;;5100650;28;20207;-65
2023/08/06 14:41:28;;;;;;;2.27;0.70;;;;;;;;;;5093098;28;20259;-65
2023/08/06 14:43:56;;;;;;;1.10;0.73;;;;;;;;;;5100423;28;20568;-65
2023/08/06 14:46:24;;;;;;;2.73;1.00;;;;;;;;;;5100543;28;20291;-64
2023/08/06 14:48:52;;;;;;;1.20;0.53;;;;;;;;;;5100530;28;20276;-65
2023/08/06 14:51:20;;;;;;;4.27;1.00;;;;;;;;;;5100355;28;20233;-65